sensor_id;sensor_type;location;lat;lon;timestamp;temperature;humidity
5278;DHT22;2662;51.194;6.614;2023-11-19T00:01:11;13.30;99.90
5278;DHT22;2662;51.194;6.614;2023-11-19T00:03:41;13.30;99.90
5278;DHT22;2662;51.194;6.614;2023-11-19T00:06:11;13.30;99.90
5278;DHT22;2662;51.194;6.614;2023-11-19T00:08:38;13.20;99.90
5278;DHT22;2662;51.194;6.614;2023-11-19T00:11:05;13.30;99.90
5278;DHT22;2662;51.194;6.614;2023-11-19T00:13:34;13.30;99.90
5278;DHT22;2662;51.194;6.614;2023-11-19T00:16:01;13.30;99.90
5278;DHT22;2662;51.194;6.614;2023-11-19T00:18:29;13.30;99.90
5278;DHT22;2662;51.194;6.614;2023-11-19T00:20:56;13.30;99.90
5278;DHT22;2662;51.194;6.614;2023-11-19T00:23:26;13.30;99.90
5278;DHT22;2662;51.194;6.614;2023-11-19T00:25:52;13.40;99.90
5278;DHT22;2662;51.194;6.614;2023-11-19T00:28:25;13.40;99.90
5278;DHT22;2662;51.194;6.614;2023-11-19T00:30:52;13.40;99.90
5278;DHT22;2662;51.194;6.614;2023-11-19T00:33:20;13.50;99.90
5278;DHT22;2662;51.194;6.614;2023-11-19T00:35:47;13.40;99.90
5278;DHT22;2662;51.194;6.614;2023-11-19T00:38:14;13.40;99.90
5278;DHT22;2662;51.194;6.614;2023-11-19T00:40:42;13.50;99.90
5278;DHT22;2662;51.194;6.614;2023-11-19T00:43:09;13.50;99.90
5278;DHT22;2662;51.194;6.614;2023-11-19T00:45:45;13.60;99.90
5278;DHT22;2662;51.194;6.614;2023-11-19T00:48:16;13.70;99.90
5278;DHT22;2662;51.194;6.614;2023-11-19T00:50:43;13.70;99.90
5278;DHT22;2662;51.194;6.614;2023-11-19T00:53:11;13.70;99.90
5278;DHT22;2662;51.194;6.614;2023-11-19T00:55:38;13.70;99.90
5278;DHT22;2662;51.194;6.614;2023-11-19T00:58:06;13.70;99.90
5278;DHT22;2662;51.194;6.614;2023-11-19T01:00:34;13.70;99.90
5278;DHT22;2662;51.194;6.614;2023-11-19T01:03:01;13.80;99.90
5278;DHT22;2662;51.194;6.614;2023-11-19T01:05:28;13.80;99.90
5278;DHT22;2662;51.194;6.614;2023-11-19T01:07:55;13.80;99.90
5278;DHT22;2662;51.194;6.614;2023-11-19T01:10:22;13.80;99.90
5278;DHT22;2662;51.194;6.614;2023-11-19T01:12:50;13.80;99.90
5278;DHT22;2662;51.194;6.614;2023-11-19T01:15:21;13.70;99.90
5278;DHT22;2662;51.194;6.614;2023-11-19T01:17:48;13.70;99.90
5278;DHT22;2662;51.194;6.614;2023-11-19T01:20:16;13.70;99.90
5278;DHT22;2662;51.194;6.614;2023-11-19T01:22:43;13.70;99.90
5278;DHT22;2662;51.194;6.614;2023-11-19T01:25:10;13.70;99.90
5278;DHT22;2662;51.194;6.614;2023-11-19T01:27:37;13.80;99.90
5278;DHT22;2662;51.194;6.614;2023-11-19T01:30:04;13.70;99.90
5278;DHT22;2662;51.194;6.614;2023-11-19T01:32:36;13.80;99.90
5278;DHT22;2662;51.194;6.614;2023-11-19T01:35:03;13.80;99.90
5278;DHT22;2662;51.194;6.614;2023-11-19T01:37:31;13.80;99.90
5278;DHT22;2662;51.194;6.614;2023-11-19T01:40:01;13.80;99.90
5278;DHT22;2662;51.194;6.614;2023-11-19T01:42:29;13.80;99.90
5278;DHT22;2662;51.194;6.614;2023-11-19T01:45:00;13.80;99.90
5278;DHT22;2662;51.194;6.614;2023-11-19T01:47:29;13.70;99.90
5278;DHT22;2662;51.194;6.614;2023-11-19T01:50:01;13.70;99.90
5278;DHT22;2662;51.194;6.614;2023-11-19T01:52:33;13.70;99.90
5278;DHT22;2662;51.194;6.614;2023-11-19T01:55:01;13.70;99.90
5278;DHT22;2662;51.194;6.614;2023-11-19T01:57:29;13.70;99.90
5278;DHT22;2662;51.194;6.614;2023-11-19T01:59:55;13.70;99.90
5278;DHT22;2662;51.194;6.614;2023-11-19T02:02:21;13.70;99.90
5278;DHT22;2662;51.194;6.614;2023-11-19T02:04:50;13.70;99.90
5278;DHT22;2662;51.194;6.614;2023-11-19T02:07:20;13.70;99.90
5278;DHT22;2662;51.194;6.614;2023-11-19T02:09:47;13.70;99.90
5278;DHT22;2662;51.194;6.614;2023-11-19T02:12:14;13.70;99.90
5278;DHT22;2662;51.194;6.614;2023-11-19T02:14:41;13.80;99.90
5278;DHT22;2662;51.194;6.614;2023-11-19T02:17:25;13.80;99.90
5278;DHT22;2662;51.194;6.614;2023-11-19T02:19:56;13.90;99.90
5278;DHT22;2662;51.194;6.614;2023-11-19T02:22:25;13.90;99.90
5278;DHT22;2662;51.194;6.614;2023-11-19T02:24:55;13.90;99.90
5278;DHT22;2662;51.194;6.614;2023-11-19T02:27:38;14.00;99.90
5278;DHT22;2662;51.194;6.614;2023-11-19T02:30:06;14.00;99.90
5278;DHT22;2662;51.194;6.614;2023-11-19T02:32:35;14.00;99.90
5278;DHT22;2662;51.194;6.614;2023-11-19T02:35:07;14.00;99.90
5278;DHT22;2662;51.194;6.614;2023-11-19T02:37:34;13.90;99.90
5278;DHT22;2662;51.194;6.614;2023-11-19T02:40:01;13.90;99.90
5278;DHT22;2662;51.194;6.614;2023-11-19T02:42:30;13.90;99.90
5278;DHT22;2662;51.194;6.614;2023-11-19T02:45:03;13.80;99.90
5278;DHT22;2662;51.194;6.614;2023-11-19T02:47:33;13.80;99.90
5278;DHT22;2662;51.194;6.614;2023-11-19T02:50:02;13.70;99.90
5278;DHT22;2662;51.194;6.614;2023-11-19T02:52:38;13.70;99.90
5278;DHT22;2662;51.194;6.614;2023-11-19T02:55:07;13.70;99.90
5278;DHT22;2662;51.194;6.614;2023-11-19T02:57:38;13.70;99.90
5278;DHT22;2662;51.194;6.614;2023-11-19T03:00:10;13.80;99.90
5278;DHT22;2662;51.194;6.614;2023-11-19T03:02:39;13.80;99.90
5278;DHT22;2662;51.194;6.614;2023-11-19T03:05:10;13.90;99.90
5278;DHT22;2662;51.194;6.614;2023-11-19T03:07:37;13.90;99.90
5278;DHT22;2662;51.194;6.614;2023-11-19T03:10:05;14.00;99.90
5278;DHT22;2662;51.194;6.614;2023-11-19T03:12:34;14.00;99.90
5278;DHT22;2662;51.194;6.614;2023-11-19T03:15:02;14.00;99.90
5278;DHT22;2662;51.194;6.614;2023-11-19T03:17:30;14.00;99.90
5278;DHT22;2662;51.194;6.614;2023-11-19T03:19:57;14.00;99.90
5278;DHT22;2662;51.194;6.614;2023-11-19T03:22:24;14.00;99.90
5278;DHT22;2662;51.194;6.614;2023-11-19T03:24:51;13.90;99.90
5278;DHT22;2662;51.194;6.614;2023-11-19T03:27:18;13.90;99.90
5278;DHT22;2662;51.194;6.614;2023-11-19T03:29:45;14.00;99.90
5278;DHT22;2662;51.194;6.614;2023-11-19T03:32:14;14.10;99.90
5278;DHT22;2662;51.194;6.614;2023-11-19T03:34:42;14.10;99.90
5278;DHT22;2662;51.194;6.614;2023-11-19T03:37:11;14.10;99.90
5278;DHT22;2662;51.194;6.614;2023-11-19T03:39:42;14.10;99.90
5278;DHT22;2662;51.194;6.614;2023-11-19T03:42:09;14.10;99.90
5278;DHT22;2662;51.194;6.614;2023-11-19T03:44:40;14.00;99.90
5278;DHT22;2662;51.194;6.614;2023-11-19T03:47:08;14.00;99.90
5278;DHT22;2662;51.194;6.614;2023-11-19T03:49:36;14.00;99.90
5278;DHT22;2662;51.194;6.614;2023-11-19T03:52:04;14.00;99.90
5278;DHT22;2662;51.194;6.614;2023-11-19T03:54:34;14.00;99.90
5278;DHT22;2662;51.194;6.614;2023-11-19T03:57:02;14.00;99.90
5278;DHT22;2662;51.194;6.614;2023-11-19T03:59:32;14.00;99.90
5278;DHT22;2662;51.194;6.614;2023-11-19T04:01:59;13.90;99.90
5278;DHT22;2662;51.194;6.614;2023-11-19T04:04:28;13.80;99.90
5278;DHT22;2662;51.194;6.614;2023-11-19T04:06:56;13.70;99.90
5278;DHT22;2662;51.194;6.614;2023-11-19T04:09:26;13.60;99.90
5278;DHT22;2662;51.194;6.614;2023-11-19T04:11:53;13.60;99.90
5278;DHT22;2662;51.194;6.614;2023-11-19T04:14:20;13.60;99.90
5278;DHT22;2662;51.194;6.614;2023-11-19T04:16:47;13.60;99.90
5278;DHT22;2662;51.194;6.614;2023-11-19T04:19:16;13.50;99.90
5278;DHT22;2662;51.194;6.614;2023-11-19T04:21:44;13.50;99.90
5278;DHT22;2662;51.194;6.614;2023-11-19T04:24:11;13.40;99.90
5278;DHT22;2662;51.194;6.614;2023-11-19T04:26:41;13.40;99.90
5278;DHT22;2662;51.194;6.614;2023-11-19T04:29:11;13.40;99.90
5278;DHT22;2662;51.194;6.614;2023-11-19T04:31:39;13.40;99.90
5278;DHT22;2662;51.194;6.614;2023-11-19T04:34:08;13.30;99.90
5278;DHT22;2662;51.194;6.614;2023-11-19T04:36:37;13.30;99.90
5278;DHT22;2662;51.194;6.614;2023-11-19T04:39:04;13.30;99.90
5278;DHT22;2662;51.194;6.614;2023-11-19T04:41:35;13.30;99.90
5278;DHT22;2662;51.194;6.614;2023-11-19T04:44:06;13.20;99.90
5278;DHT22;2662;51.194;6.614;2023-11-19T04:46:34;13.20;99.90
5278;DHT22;2662;51.194;6.614;2023-11-19T04:49:01;13.20;99.90
5278;DHT22;2662;51.194;6.614;2023-11-19T04:51:38;13.20;99.90
5278;DHT22;2662;51.194;6.614;2023-11-19T04:54:06;13.20;99.90
5278;DHT22;2662;51.194;6.614;2023-11-19T04:56:34;13.20;99.90
5278;DHT22;2662;51.194;6.614;2023-11-19T04:59:02;13.20;99.90
5278;DHT22;2662;51.194;6.614;2023-11-19T05:01:29;13.20;99.90
5278;DHT22;2662;51.194;6.614;2023-11-19T05:03:56;13.20;99.90
5278;DHT22;2662;51.194;6.614;2023-11-19T05:06:26;13.10;99.90
5278;DHT22;2662;51.194;6.614;2023-11-19T05:08:54;13.10;99.90
5278;DHT22;2662;51.194;6.614;2023-11-19T05:11:21;13.10;99.90
5278;DHT22;2662;51.194;6.614;2023-11-19T05:13:49;13.10;99.90
5278;DHT22;2662;51.194;6.614;2023-11-19T05:16:18;13.10;99.90
5278;DHT22;2662;51.194;6.614;2023-11-19T05:18:46;13.10;99.90
5278;DHT22;2662;51.194;6.614;2023-11-19T05:21:17;13.10;99.90
5278;DHT22;2662;51.194;6.614;2023-11-19T05:23:50;13.10;99.90
5278;DHT22;2662;51.194;6.614;2023-11-19T05:26:18;13.00;99.90
5278;DHT22;2662;51.194;6.614;2023-11-19T05:28:45;13.00;99.90
5278;DHT22;2662;51.194;6.614;2023-11-19T05:31:13;13.00;99.90
5278;DHT22;2662;51.194;6.614;2023-11-19T05:33:41;13.00;99.90
5278;DHT22;2662;51.194;6.614;2023-11-19T05:36:08;13.10;99.90
5278;DHT22;2662;51.194;6.614;2023-11-19T05:38:35;13.10;99.90
5278;DHT22;2662;51.194;6.614;2023-11-19T05:41:03;13.20;99.90
5278;DHT22;2662;51.194;6.614;2023-11-19T05:43:34;13.20;99.90
5278;DHT22;2662;51.194;6.614;2023-11-19T05:46:01;13.10;99.90
5278;DHT22;2662;51.194;6.614;2023-11-19T05:48:28;13.10;99.90
5278;DHT22;2662;51.194;6.614;2023-11-19T05:50:58;13.20;99.90
5278;DHT22;2662;51.194;6.614;2023-11-19T05:53:26;13.20;99.90
5278;DHT22;2662;51.194;6.614;2023-11-19T05:55:52;13.20;99.90
5278;DHT22;2662;51.194;6.614;2023-11-19T05:58:23;13.10;99.90
5278;DHT22;2662;51.194;6.614;2023-11-19T06:00:52;13.10;99.90
5278;DHT22;2662;51.194;6.614;2023-11-19T06:03:19;13.10;99.90
5278;DHT22;2662;51.194;6.614;2023-11-19T06:05:47;13.10;99.90
5278;DHT22;2662;51.194;6.614;2023-11-19T06:08:15;13.10;99.90
5278;DHT22;2662;51.194;6.614;2023-11-19T06:10:43;13.00;99.90
5278;DHT22;2662;51.194;6.614;2023-11-19T06:13:12;13.00;99.90
5278;DHT22;2662;51.194;6.614;2023-11-19T06:15:41;12.90;99.90
5278;DHT22;2662;51.194;6.614;2023-11-19T06:18:08;12.90;99.90
5278;DHT22;2662;51.194;6.614;2023-11-19T06:20:37;12.90;99.90
5278;DHT22;2662;51.194;6.614;2023-11-19T06:23:04;12.80;99.90
5278;DHT22;2662;51.194;6.614;2023-11-19T06:25:33;12.80;99.90
5278;DHT22;2662;51.194;6.614;2023-11-19T06:28:01;12.80;99.90
5278;DHT22;2662;51.194;6.614;2023-11-19T06:30:28;12.80;99.90
5278;DHT22;2662;51.194;6.614;2023-11-19T06:32:56;12.80;99.90
5278;DHT22;2662;51.194;6.614;2023-11-19T06:35:26;12.80;99.90
5278;DHT22;2662;51.194;6.614;2023-11-19T06:37:56;12.70;99.90
5278;DHT22;2662;51.194;6.614;2023-11-19T06:40:27;12.70;99.90
5278;DHT22;2662;51.194;6.614;2023-11-19T06:42:56;12.60;99.90
5278;DHT22;2662;51.194;6.614;2023-11-19T06:45:23;12.60;99.90
5278;DHT22;2662;51.194;6.614;2023-11-19T06:47:51;12.60;99.90
5278;DHT22;2662;51.194;6.614;2023-11-19T06:50:18;12.60;99.90
5278;DHT22;2662;51.194;6.614;2023-11-19T06:52:48;12.60;99.90
5278;DHT22;2662;51.194;6.614;2023-11-19T06:55:16;12.50;99.90
5278;DHT22;2662;51.194;6.614;2023-11-19T06:57:43;12.50;99.90
5278;DHT22;2662;51.194;6.614;2023-11-19T07:00:13;12.50;99.90
5278;DHT22;2662;51.194;6.614;2023-11-19T07:02:40;12.50;99.90
5278;DHT22;2662;51.194;6.614;2023-11-19T07:05:07;12.50;99.90
5278;DHT22;2662;51.194;6.614;2023-11-19T07:07:35;12.50;99.90
5278;DHT22;2662;51.194;6.614;2023-11-19T07:10:02;12.40;99.90
5278;DHT22;2662;51.194;6.614;2023-11-19T07:12:30;12.40;99.90
5278;DHT22;2662;51.194;6.614;2023-11-19T07:14:57;12.40;99.90
5278;DHT22;2662;51.194;6.614;2023-11-19T07:17:26;12.50;99.90
5278;DHT22;2662;51.194;6.614;2023-11-19T07:19:56;12.50;99.90
5278;DHT22;2662;51.194;6.614;2023-11-19T07:22:25;12.40;99.90
5278;DHT22;2662;51.194;6.614;2023-11-19T07:24:52;12.50;99.90
5278;DHT22;2662;51.194;6.614;2023-11-19T07:27:19;12.50;99.90
5278;DHT22;2662;51.194;6.614;2023-11-19T07:29:46;12.50;99.90
5278;DHT22;2662;51.194;6.614;2023-11-19T07:32:13;12.50;99.90
5278;DHT22;2662;51.194;6.614;2023-11-19T07:34:41;12.60;99.90
5278;DHT22;2662;51.194;6.614;2023-11-19T07:37:09;12.70;99.90
5278;DHT22;2662;51.194;6.614;2023-11-19T07:39:37;12.70;99.90
5278;DHT22;2662;51.194;6.614;2023-11-19T07:42:06;12.70;99.90
5278;DHT22;2662;51.194;6.614;2023-11-19T07:44:34;12.70;99.90
5278;DHT22;2662;51.194;6.614;2023-11-19T07:47:03;12.80;99.90
5278;DHT22;2662;51.194;6.614;2023-11-19T07:49:30;12.80;99.90
5278;DHT22;2662;51.194;6.614;2023-11-19T07:52:00;12.90;99.90
5278;DHT22;2662;51.194;6.614;2023-11-19T07:54:28;12.90;99.90
5278;DHT22;2662;51.194;6.614;2023-11-19T07:56:55;12.90;99.90
5278;DHT22;2662;51.194;6.614;2023-11-19T07:59:22;12.90;99.90
5278;DHT22;2662;51.194;6.614;2023-11-19T08:01:52;13.00;99.90
5278;DHT22;2662;51.194;6.614;2023-11-19T08:04:19;13.10;99.90
5278;DHT22;2662;51.194;6.614;2023-11-19T08:06:46;13.30;99.90
5278;DHT22;2662;51.194;6.614;2023-11-19T08:09:15;13.50;99.90
5278;DHT22;2662;51.194;6.614;2023-11-19T08:11:44;13.60;99.90
5278;DHT22;2662;51.194;6.614;2023-11-19T08:14:11;13.80;99.90
5278;DHT22;2662;51.194;6.614;2023-11-19T08:16:39;14.00;99.90
5278;DHT22;2662;51.194;6.614;2023-11-19T08:19:05;14.10;99.90
5278;DHT22;2662;51.194;6.614;2023-11-19T08:21:34;14.10;99.90
5278;DHT22;2662;51.194;6.614;2023-11-19T08:24:01;14.20;99.90
5278;DHT22;2662;51.194;6.614;2023-11-19T08:26:31;14.40;99.90
5278;DHT22;2662;51.194;6.614;2023-11-19T08:28:58;14.50;99.90
5278;DHT22;2662;51.194;6.614;2023-11-19T08:31:32;14.80;99.90
5278;DHT22;2662;51.194;6.614;2023-11-19T08:33:59;15.10;99.90
5278;DHT22;2662;51.194;6.614;2023-11-19T08:36:26;15.20;99.90
5278;DHT22;2662;51.194;6.614;2023-11-19T08:38:53;15.40;99.90
5278;DHT22;2662;51.194;6.614;2023-11-19T08:41:21;15.70;99.90
5278;DHT22;2662;51.194;6.614;2023-11-19T08:43:49;15.80;99.90
5278;DHT22;2662;51.194;6.614;2023-11-19T08:46:17;16.00;99.90
5278;DHT22;2662;51.194;6.614;2023-11-19T08:48:44;16.30;99.90
5278;DHT22;2662;51.194;6.614;2023-11-19T08:51:12;16.60;99.90
5278;DHT22;2662;51.194;6.614;2023-11-19T08:53:39;16.60;99.90
5278;DHT22;2662;51.194;6.614;2023-11-19T08:56:07;16.60;99.90
5278;DHT22;2662;51.194;6.614;2023-11-19T08:58:34;16.40;99.90
5278;DHT22;2662;51.194;6.614;2023-11-19T09:01:02;16.10;99.90
5278;DHT22;2662;51.194;6.614;2023-11-19T09:03:31;16.00;99.90
5278;DHT22;2662;51.194;6.614;2023-11-19T09:06:00;16.30;99.90
5278;DHT22;2662;51.194;6.614;2023-11-19T09:08:27;16.40;99.90
5278;DHT22;2662;51.194;6.614;2023-11-19T09:10:54;16.20;99.90
5278;DHT22;2662;51.194;6.614;2023-11-19T09:13:21;16.10;99.90
5278;DHT22;2662;51.194;6.614;2023-11-19T09:15:48;16.10;99.90
5278;DHT22;2662;51.194;6.614;2023-11-19T09:18:16;16.10;99.90
5278;DHT22;2662;51.194;6.614;2023-11-19T09:20:46;16.10;99.90
5278;DHT22;2662;51.194;6.614;2023-11-19T09:23:13;16.30;99.90
5278;DHT22;2662;51.194;6.614;2023-11-19T09:25:39;16.20;99.90
5278;DHT22;2662;51.194;6.614;2023-11-19T09:28:06;16.30;99.90
5278;DHT22;2662;51.194;6.614;2023-11-19T09:30:34;16.50;99.90
5278;DHT22;2662;51.194;6.614;2023-11-19T09:33:01;16.30;99.90
5278;DHT22;2662;51.194;6.614;2023-11-19T09:35:29;16.30;99.90
5278;DHT22;2662;51.194;6.614;2023-11-19T09:37:55;15.90;99.90
5278;DHT22;2662;51.194;6.614;2023-11-19T09:40:25;15.80;99.90
5278;DHT22;2662;51.194;6.614;2023-11-19T09:42:54;15.70;99.90
5278;DHT22;2662;51.194;6.614;2023-11-19T09:45:21;15.80;99.90
5278;DHT22;2662;51.194;6.614;2023-11-19T09:47:51;15.90;99.90
5278;DHT22;2662;51.194;6.614;2023-11-19T09:50:20;16.00;99.90
5278;DHT22;2662;51.194;6.614;2023-11-19T09:52:48;16.00;99.90
5278;DHT22;2662;51.194;6.614;2023-11-19T09:55:16;16.10;99.90
5278;DHT22;2662;51.194;6.614;2023-11-19T09:57:44;16.00;99.90
5278;DHT22;2662;51.194;6.614;2023-11-19T10:00:14;15.80;99.90
5278;DHT22;2662;51.194;6.614;2023-11-19T10:02:44;15.80;99.90
5278;DHT22;2662;51.194;6.614;2023-11-19T10:05:12;15.60;99.90
5278;DHT22;2662;51.194;6.614;2023-11-19T10:07:40;15.50;99.90
5278;DHT22;2662;51.194;6.614;2023-11-19T10:10:09;15.80;99.90
5278;DHT22;2662;51.194;6.614;2023-11-19T10:12:40;15.80;99.90
5278;DHT22;2662;51.194;6.614;2023-11-19T10:15:13;15.80;99.90
5278;DHT22;2662;51.194;6.614;2023-11-19T10:17:49;15.80;99.90
5278;DHT22;2662;51.194;6.614;2023-11-19T10:20:16;15.60;99.90
5278;DHT22;2662;51.194;6.614;2023-11-19T10:22:46;15.50;99.90
5278;DHT22;2662;51.194;6.614;2023-11-19T10:25:24;15.50;99.90
5278;DHT22;2662;51.194;6.614;2023-11-19T10:27:51;15.40;99.90
5278;DHT22;2662;51.194;6.614;2023-11-19T10:30:20;15.30;99.90
5278;DHT22;2662;51.194;6.614;2023-11-19T10:33:03;15.10;99.90
5278;DHT22;2662;51.194;6.614;2023-11-19T10:35:31;15.00;99.90
5278;DHT22;2662;51.194;6.614;2023-11-19T10:38:00;15.00;99.90
5278;DHT22;2662;51.194;6.614;2023-11-19T10:40:39;14.80;99.90
5278;DHT22;2662;51.194;6.614;2023-11-19T10:43:07;14.80;99.90
5278;DHT22;2662;51.194;6.614;2023-11-19T10:45:34;14.90;99.90
5278;DHT22;2662;51.194;6.614;2023-11-19T10:48:05;15.10;99.90
5278;DHT22;2662;51.194;6.614;2023-11-19T10:50:35;15.30;99.90
5278;DHT22;2662;51.194;6.614;2023-11-19T10:53:05;15.40;99.90
5278;DHT22;2662;51.194;6.614;2023-11-19T10:55:33;15.60;99.90
5278;DHT22;2662;51.194;6.614;2023-11-19T10:58:05;15.60;99.90
5278;DHT22;2662;51.194;6.614;2023-11-19T11:00:38;15.60;99.90
5278;DHT22;2662;51.194;6.614;2023-11-19T11:03:10;15.60;99.90
5278;DHT22;2662;51.194;6.614;2023-11-19T11:05:38;15.60;99.90
5278;DHT22;2662;51.194;6.614;2023-11-19T11:08:07;15.40;99.90
5278;DHT22;2662;51.194;6.614;2023-11-19T11:10:39;15.40;99.90
5278;DHT22;2662;51.194;6.614;2023-11-19T11:13:11;15.20;99.90
5278;DHT22;2662;51.194;6.614;2023-11-19T11:15:40;15.30;99.90
5278;DHT22;2662;51.194;6.614;2023-11-19T11:18:10;15.30;99.90
5278;DHT22;2662;51.194;6.614;2023-11-19T11:20:37;15.30;99.90
5278;DHT22;2662;51.194;6.614;2023-11-19T11:23:24;15.20;99.90
5278;DHT22;2662;51.194;6.614;2023-11-19T11:26:05;15.30;99.90
5278;DHT22;2662;51.194;6.614;2023-11-19T11:28:43;15.30;99.90
5278;DHT22;2662;51.194;6.614;2023-11-19T11:31:21;15.40;99.90
5278;DHT22;2662;51.194;6.614;2023-11-19T11:34:24;15.60;99.90
5278;DHT22;2662;51.194;6.614;2023-11-19T11:37:04;15.50;99.90
5278;DHT22;2662;51.194;6.614;2023-11-19T11:39:33;15.50;99.90
5278;DHT22;2662;51.194;6.614;2023-11-19T11:42:34;15.60;99.90
5278;DHT22;2662;51.194;6.614;2023-11-19T11:45:04;15.60;99.90
5278;DHT22;2662;51.194;6.614;2023-11-19T11:48:10;15.70;99.90
5278;DHT22;2662;51.194;6.614;2023-11-19T11:50:49;15.90;99.90
5278;DHT22;2662;51.194;6.614;2023-11-19T11:53:19;16.30;99.90
5278;DHT22;2662;51.194;6.614;2023-11-19T11:55:56;16.50;99.90
5278;DHT22;2662;51.194;6.614;2023-11-19T11:58:32;16.30;99.90
5278;DHT22;2662;51.194;6.614;2023-11-19T12:01:03;16.20;99.90
5278;DHT22;2662;51.194;6.614;2023-11-19T12:03:32;16.30;99.90
5278;DHT22;2662;51.194;6.614;2023-11-19T12:05:59;16.40;99.90
5278;DHT22;2662;51.194;6.614;2023-11-19T12:08:29;16.30;99.90
5278;DHT22;2662;51.194;6.614;2023-11-19T12:11:00;16.00;99.90
5278;DHT22;2662;51.194;6.614;2023-11-19T12:13:53;15.80;99.90
5278;DHT22;2662;51.194;6.614;2023-11-19T12:16:25;15.60;99.90
5278;DHT22;2662;51.194;6.614;2023-11-19T12:18:54;15.50;99.90
5278;DHT22;2662;51.194;6.614;2023-11-19T12:21:28;15.60;99.90
5278;DHT22;2662;51.194;6.614;2023-11-19T12:23:58;15.60;99.90
5278;DHT22;2662;51.194;6.614;2023-11-19T12:26:34;15.60;99.90
5278;DHT22;2662;51.194;6.614;2023-11-19T12:29:01;15.60;99.90
5278;DHT22;2662;51.194;6.614;2023-11-19T12:31:33;15.50;99.90
5278;DHT22;2662;51.194;6.614;2023-11-19T12:34:11;15.40;99.90
5278;DHT22;2662;51.194;6.614;2023-11-19T12:36:39;15.30;99.90
5278;DHT22;2662;51.194;6.614;2023-11-19T12:39:08;14.90;99.90
5278;DHT22;2662;51.194;6.614;2023-11-19T12:41:58;14.70;99.90
5278;DHT22;2662;51.194;6.614;2023-11-19T12:44:26;14.70;99.90
5278;DHT22;2662;51.194;6.614;2023-11-19T12:47:06;14.60;99.90
5278;DHT22;2662;51.194;6.614;2023-11-19T12:49:33;14.70;99.90
5278;DHT22;2662;51.194;6.614;2023-11-19T12:52:01;14.90;99.90
5278;DHT22;2662;51.194;6.614;2023-11-19T12:54:35;15.00;99.90
5278;DHT22;2662;51.194;6.614;2023-11-19T12:57:02;15.20;99.90
5278;DHT22;2662;51.194;6.614;2023-11-19T12:59:30;15.10;99.90
5278;DHT22;2662;51.194;6.614;2023-11-19T13:01:57;14.90;99.90
5278;DHT22;2662;51.194;6.614;2023-11-19T13:04:29;14.90;99.90
5278;DHT22;2662;51.194;6.614;2023-11-19T13:06:57;14.90;99.90
5278;DHT22;2662;51.194;6.614;2023-11-19T13:09:24;15.00;99.90
5278;DHT22;2662;51.194;6.614;2023-11-19T13:11:52;14.90;99.90
5278;DHT22;2662;51.194;6.614;2023-11-19T13:14:23;14.90;99.90
5278;DHT22;2662;51.194;6.614;2023-11-19T13:16:49;15.00;99.90
5278;DHT22;2662;51.194;6.614;2023-11-19T13:19:16;15.10;99.90
5278;DHT22;2662;51.194;6.614;2023-11-19T13:21:46;15.10;99.90
5278;DHT22;2662;51.194;6.614;2023-11-19T13:24:14;15.10;99.90
5278;DHT22;2662;51.194;6.614;2023-11-19T13:26:40;15.00;99.90
5278;DHT22;2662;51.194;6.614;2023-11-19T13:29:08;15.00;99.90
5278;DHT22;2662;51.194;6.614;2023-11-19T13:31:37;14.90;99.90
5278;DHT22;2662;51.194;6.614;2023-11-19T13:34:04;14.80;99.90
5278;DHT22;2662;51.194;6.614;2023-11-19T13:36:33;14.70;99.90
5278;DHT22;2662;51.194;6.614;2023-11-19T13:39:01;14.70;99.90
5278;DHT22;2662;51.194;6.614;2023-11-19T13:41:28;14.70;99.90
5278;DHT22;2662;51.194;6.614;2023-11-19T13:43:55;14.70;99.90
5278;DHT22;2662;51.194;6.614;2023-11-19T13:46:24;14.70;99.90
5278;DHT22;2662;51.194;6.614;2023-11-19T13:48:51;14.80;99.90
5278;DHT22;2662;51.194;6.614;2023-11-19T13:51:19;14.80;99.90
5278;DHT22;2662;51.194;6.614;2023-11-19T13:53:46;14.70;99.90
5278;DHT22;2662;51.194;6.614;2023-11-19T13:56:15;14.70;99.90
5278;DHT22;2662;51.194;6.614;2023-11-19T13:58:42;14.70;99.90
5278;DHT22;2662;51.194;6.614;2023-11-19T14:01:11;14.60;99.90
5278;DHT22;2662;51.194;6.614;2023-11-19T14:03:39;14.60;99.90
5278;DHT22;2662;51.194;6.614;2023-11-19T14:06:07;14.60;99.90
5278;DHT22;2662;51.194;6.614;2023-11-19T14:08:35;14.70;99.90
5278;DHT22;2662;51.194;6.614;2023-11-19T14:11:03;14.60;99.90
5278;DHT22;2662;51.194;6.614;2023-11-19T14:13:31;14.50;99.90
5278;DHT22;2662;51.194;6.614;2023-11-19T14:15:58;14.40;99.90
5278;DHT22;2662;51.194;6.614;2023-11-19T14:18:26;14.50;99.90
5278;DHT22;2662;51.194;6.614;2023-11-19T14:20:54;14.30;99.90
5278;DHT22;2662;51.194;6.614;2023-11-19T14:23:21;14.30;99.90
5278;DHT22;2662;51.194;6.614;2023-11-19T14:25:51;14.10;99.90
5278;DHT22;2662;51.194;6.614;2023-11-19T14:28:18;14.00;99.90
5278;DHT22;2662;51.194;6.614;2023-11-19T14:30:48;13.90;99.90
5278;DHT22;2662;51.194;6.614;2023-11-19T14:33:22;13.90;99.90
5278;DHT22;2662;51.194;6.614;2023-11-19T14:35:49;13.80;99.90
5278;DHT22;2662;51.194;6.614;2023-11-19T14:38:17;13.80;99.90
5278;DHT22;2662;51.194;6.614;2023-11-19T14:40:44;13.60;99.90
5278;DHT22;2662;51.194;6.614;2023-11-19T14:43:11;13.60;99.90
5278;DHT22;2662;51.194;6.614;2023-11-19T14:45:41;13.60;99.90
5278;DHT22;2662;51.194;6.614;2023-11-19T14:48:09;13.60;99.90
5278;DHT22;2662;51.194;6.614;2023-11-19T14:50:36;13.60;99.90
5278;DHT22;2662;51.194;6.614;2023-11-19T14:53:03;13.60;99.90
5278;DHT22;2662;51.194;6.614;2023-11-19T14:55:32;13.50;99.90
5278;DHT22;2662;51.194;6.614;2023-11-19T14:57:58;13.40;99.90
5278;DHT22;2662;51.194;6.614;2023-11-19T15:00:25;13.50;99.90
5278;DHT22;2662;51.194;6.614;2023-11-19T15:02:52;13.50;99.90
5278;DHT22;2662;51.194;6.614;2023-11-19T15:05:20;13.40;99.90
5278;DHT22;2662;51.194;6.614;2023-11-19T15:07:47;13.30;99.90
5278;DHT22;2662;51.194;6.614;2023-11-19T15:10:15;13.30;99.90
5278;DHT22;2662;51.194;6.614;2023-11-19T15:12:45;13.30;99.90
5278;DHT22;2662;51.194;6.614;2023-11-19T15:15:11;13.20;99.90
5278;DHT22;2662;51.194;6.614;2023-11-19T15:17:39;13.10;99.90
5278;DHT22;2662;51.194;6.614;2023-11-19T15:20:11;13.10;99.90
5278;DHT22;2662;51.194;6.614;2023-11-19T15:22:43;13.10;99.90
5278;DHT22;2662;51.194;6.614;2023-11-19T15:25:10;13.10;99.90
5278;DHT22;2662;51.194;6.614;2023-11-19T15:27:38;13.10;99.90
5278;DHT22;2662;51.194;6.614;2023-11-19T15:30:06;13.10;99.90
5278;DHT22;2662;51.194;6.614;2023-11-19T15:32:35;13.20;99.90
5278;DHT22;2662;51.194;6.614;2023-11-19T15:35:02;13.30;99.90
5278;DHT22;2662;51.194;6.614;2023-11-19T15:37:28;13.20;99.90
5278;DHT22;2662;51.194;6.614;2023-11-19T15:39:59;13.20;99.90
5278;DHT22;2662;51.194;6.614;2023-11-19T15:42:25;13.30;99.90
5278;DHT22;2662;51.194;6.614;2023-11-19T15:44:53;13.20;99.90
5278;DHT22;2662;51.194;6.614;2023-11-19T15:47:20;13.20;99.90
5278;DHT22;2662;51.194;6.614;2023-11-19T15:49:49;13.10;99.90
5278;DHT22;2662;51.194;6.614;2023-11-19T15:52:16;13.10;99.90
5278;DHT22;2662;51.194;6.614;2023-11-19T15:54:43;13.10;99.90
5278;DHT22;2662;51.194;6.614;2023-11-19T15:57:12;13.20;99.90
5278;DHT22;2662;51.194;6.614;2023-11-19T15:59:39;13.20;99.90
5278;DHT22;2662;51.194;6.614;2023-11-19T16:02:08;13.20;99.90
5278;DHT22;2662;51.194;6.614;2023-11-19T16:04:35;13.20;99.90
5278;DHT22;2662;51.194;6.614;2023-11-19T16:07:02;13.10;99.90
5278;DHT22;2662;51.194;6.614;2023-11-19T16:09:29;13.10;99.90
5278;DHT22;2662;51.194;6.614;2023-11-19T16:11:56;13.10;99.90
5278;DHT22;2662;51.194;6.614;2023-11-19T16:14:24;13.00;99.90